Time;durP1;ratioP1;P1;durP2;ratioP2;P2;SDS_P1;SDS_P2;PMS_P1;PMS_P2;Temp;Humidity;BMP_temperature;BMP_pressure;BME280_temperature;BME280_humidity;BME280_pressure;Samples;Min_cycle;Max_cycle;Signal;HPM_P1;HPM_P2
2021/06/11 00:02:25;;;;;;;25.93;15.00;;;16.30;99.90;;;;;;6296024;22;20192;-78
2021/06/11 00:04:51;;;;;;;28.13;15.87;;;16.30;99.90;;;;;;6295034;22;20172;-79
2021/06/11 00:07:18;;;;;;;26.07;16.00;;;16.30;99.90;;;;;;6295446;22;20639;-79
2021/06/11 00:09:44;;;;;;;28.30;16.40;;;16.30;99.90;;;;;;6296389;22;20172;-77
2021/06/11 00:12:12;;;;;;;29.17;15.33;;;16.20;99.90;;;;;;6295130;22;20168;-79
2021/06/11 00:14:40;;;;;;;29.60;18.23;;;16.30;99.90;;;;;;6296315;22;20172;-80
2021/06/11 00:17:07;;;;;;;28.60;16.60;;;16.20;99.90;;;;;;6296722;22;20168;-78
2021/06/11 00:19:33;;;;;;;30.37;15.90;;;16.20;99.90;;;;;;6296700;22;20631;-80
2021/06/11 00:22:00;;;;;;;22.63;13.30;;;16.20;99.90;;;;;;6296727;22;20192;-77
2021/06/11 00:24:27;;;;;;;22.47;12.90;;;16.20;99.90;;;;;;6296634;22;20168;-78
2021/06/11 00:26:53;;;;;;;24.27;13.33;;;16.20;99.90;;;;;;6296148;22;20168;-79
2021/06/11 00:29:19;;;;;;;27.23;14.47;;;16.20;99.90;;;;;;6296319;22;20211;-78
2021/06/11 00:31:47;;;;;;;25.57;13.97;;;16.10;99.90;;;;;;6296186;22;20218;-80
2021/06/11 00:34:13;;;;;;;24.50;15.00;;;16.10;99.90;;;;;;6295901;22;20176;-78
2021/06/11 00:36:40;;;;;;;23.95;13.35;;;16.10;99.90;;;;;;6296131;22;20185;-77
2021/06/11 00:39:06;;;;;;;22.53;13.10;;;16.10;99.90;;;;;;6296839;22;20223;-78
2021/06/11 00:41:33;;;;;;;25.03;14.87;;;16.00;99.90;;;;;;6295528;22;20183;-78
2021/06/11 00:44:00;;;;;;;23.17;13.07;;;16.00;99.90;;;;;;6297136;22;20258;-81
2021/06/11 00:46:26;;;;;;;19.20;12.03;;;16.00;99.90;;;;;;6295987;22;20168;-80
2021/06/11 00:48:54;;;;;;;20.40;12.63;;;16.00;99.90;;;;;;6296378;22;20693;-79
2021/06/11 00:51:22;;;;;;;19.50;12.97;;;16.00;99.90;;;;;;6297316;22;20535;-77
2021/06/11 00:53:48;;;;;;;23.30;14.97;;;16.00;99.90;;;;;;6296119;22;20265;-79
2021/06/11 00:56:15;;;;;;;23.08;14.60;;;16.00;99.90;;;;;;6296258;22;20171;-80
2021/06/11 00:58:41;;;;;;;20.23;13.10;;;16.00;99.90;;;;;;6296240;22;20600;-81
2021/06/11 01:01:08;;;;;;;20.07;13.43;;;16.00;99.90;;;;;;6296020;22;20437;-80
2021/06/11 01:03:34;;;;;;;23.97;14.27;;;16.00;99.90;;;;;;6296404;22;20245;-76
2021/06/11 01:06:01;;;;;;;21.63;14.60;;;16.00;99.90;;;;;;6296622;22;20172;-78
2021/06/11 01:08:28;;;;;;;16.73;13.30;;;16.10;99.90;;;;;;6294714;22;20902;-76
2021/06/11 01:10:56;;;;;;;18.73;14.17;;;16.10;99.90;;;;;;6296420;22;20180;-80
2021/06/11 01:13:23;;;;;;;19.48;14.23;;;16.10;99.90;;;;;;6295093;22;20176;-77
2021/06/11 01:15:50;;;;;;;19.00;14.87;;;16.10;99.90;;;;;;6294885;22;20218;-77
2021/06/11 01:18:19;;;;;;;20.38;14.35;;;16.10;99.90;;;;;;6295910;22;20192;-78
2021/06/11 01:20:46;;;;;;;21.17;15.97;;;16.10;99.90;;;;;;6295803;22;20577;-82
2021/06/11 01:23:39;;;;;;;24.83;17.73;;;16.20;99.90;;;;;;6296148;22;20192;-79
2021/06/11 01:26:21;;;;;;;21.87;15.70;;;16.20;99.90;;;;;;6296192;22;20164;-77
2021/06/11 01:28:50;;;;;;;20.80;15.27;;;16.10;99.90;;;;;;6294605;22;20217;-81
2021/06/11 01:31:18;;;;;;;19.27;13.83;;;16.10;99.90;;;;;;6295476;22;20191;-81
2021/06/11 01:33:47;;;;;;;19.27;13.90;;;16.10;99.90;;;;;;6295243;22;20191;-80
2021/06/11 01:36:17;;;;;;;22.23;16.70;;;16.10;99.90;;;;;;6294842;22;20171;-80
2021/06/11 01:38:47;;;;;;;23.67;14.57;;;16.10;99.90;;;;;;6295338;22;20168;-78
2021/06/11 01:41:19;;;;;;;24.60;16.30;;;16.10;99.90;;;;;;6296409;22;20163;-79
2021/06/11 01:43:48;;;;;;;22.97;14.67;;;16.10;99.90;;;;;;6294616;22;20199;-79
2021/06/11 01:46:17;;;;;;;27.37;16.53;;;16.20;99.90;;;;;;6294903;22;20862;-78
2021/06/11 01:48:46;;;;;;;24.33;14.60;;;16.20;99.90;;;;;;6295924;22;20164;-77
2021/06/11 01:51:14;;;;;;;25.17;15.53;;;16.20;99.90;;;;;;6294765;22;20439;-81
2021/06/11 01:53:42;;;;;;;26.73;15.50;;;16.20;99.90;;;;;;6296082;22;20175;-81
2021/06/11 01:56:11;;;;;;;28.40;15.03;;;16.20;99.90;;;;;;6295596;22;20169;-78
2021/06/11 01:58:41;;;;;;;25.93;14.47;;;16.20;99.90;;;;;;6294923;22;20226;-79
2021/06/11 02:01:08;;;;;;;26.40;14.47;;;16.10;99.90;;;;;;6295050;22;20436;-80
2021/06/11 02:03:35;;;;;;;28.87;15.20;;;16.20;99.90;;;;;;6295583;22;20200;-77
2021/06/11 02:06:02;;;;;;;23.92;14.18;;;16.20;99.90;;;;;;6295449;22;20239;-80
2021/06/11 02:08:29;;;;;;;28.27;14.93;;;16.20;99.90;;;;;;6295137;22;20194;-81
2021/06/11 02:10:57;;;;;;;25.50;14.33;;;16.20;99.90;;;;;;6295518;22;20562;-80
2021/06/11 02:13:23;;;;;;;25.30;13.73;;;16.10;99.90;;;;;;6295204;22;20164;-77
2021/06/11 02:15:53;;;;;;;26.70;14.80;;;16.10;99.90;;;;;;6295383;22;20168;-76
2021/06/11 02:18:21;;;;;;;30.03;15.50;;;16.20;99.90;;;;;;6295984;22;20188;-79
2021/06/11 02:20:48;;;;;;;24.17;12.97;;;16.20;99.90;;;;;;6295850;22;20823;-78
2021/06/11 02:23:14;;;;;;;23.07;12.27;;;16.20;99.90;;;;;;6295935;22;20196;-80
2021/06/11 02:25:41;;;;;;;24.97;13.10;;;16.20;99.90;;;;;;6295517;22;20712;-78
2021/06/11 02:28:08;;;;;;;28.77;13.50;;;16.20;99.90;;;;;;6295273;22;20183;-80
2021/06/11 02:30:34;;;;;;;23.77;12.47;;;16.20;99.90;;;;;;6296594;22;20229;-77
2021/06/11 02:33:02;;;;;;;29.83;13.90;;;16.20;99.90;;;;;;6294929;22;20172;-79
2021/06/11 02:35:28;;;;;;;24.43;13.30;;;16.20;99.90;;;;;;6294325;22;20588;-80
2021/06/11 02:37:55;;;;;;;26.53;13.70;;;16.20;99.90;;;;;;6293631;22;20176;-82
2021/06/11 02:40:21;;;;;;;24.50;13.47;;;16.20;99.90;;;;;;6294399;22;20168;-76
2021/06/11 02:42:51;;;;;;;24.60;13.10;;;16.20;99.90;;;;;;6295817;22;20798;-78
2021/06/11 02:45:23;;;;;;;30.17;15.03;;;16.30;99.90;;;;;;6294779;22;20640;-77
2021/06/11 02:47:54;;;;;;;30.20;14.37;;;16.20;99.90;;;;;;6295082;22;20172;-80
2021/06/11 02:50:26;;;;;;;25.95;13.50;;;16.30;99.90;;;;;;6295065;22;20518;-81
2021/06/11 02:52:57;;;;;;;30.33;15.30;;;16.30;99.90;;;;;;6294240;22;20164;-78
2021/06/11 02:55:25;;;;;;;27.13;14.53;;;16.30;99.90;;;;;;6292948;22;20171;-78
2021/06/11 02:57:57;;;;;;;30.70;15.53;;;16.30;99.90;;;;;;6293439;22;20203;-78
2021/06/11 03:00:27;;;;;;;27.93;14.70;;;16.30;99.90;;;;;;6293848;22;20175;-78
2021/06/11 03:02:58;;;;;;;31.27;16.07;;;16.30;99.90;;;;;;6294661;22;20200;-77
2021/06/11 03:05:26;;;;;;;27.30;14.60;;;16.30;99.90;;;;;;6294274;22;20476;-77
2021/06/11 03:07:56;;;;;;;28.43;13.67;;;16.30;99.90;;;;;;6293300;22;20172;-77
2021/06/11 03:10:29;;;;;;;33.67;16.90;;;16.30;99.90;;;;;;6294140;22;20175;-77
2021/06/11 03:12:56;;;;;;;35.63;16.67;;;16.40;99.90;;;;;;6294429;22;20195;-76
2021/06/11 03:15:25;;;;;;;37.00;17.03;;;16.40;99.90;;;;;;6293865;22;20171;-78
2021/06/11 03:17:55;;;;;;;31.10;16.20;;;16.40;99.90;;;;;;6293203;22;20184;-76
2021/06/11 03:20:24;;;;;;;34.33;16.57;;;16.40;99.90;;;;;;6295059;22;20174;-75
2021/06/11 03:22:56;;;;;;;32.17;16.73;;;16.40;99.90;;;;;;6292947;22;20202;-82
2021/06/11 03:25:26;;;;;;;29.10;15.20;;;16.40;99.90;;;;;;6295162;22;20171;-78
2021/06/11 03:27:56;;;;;;;32.67;16.00;;;16.40;99.90;;;;;;6294485;22;20163;-76
2021/06/11 03:30:26;;;;;;;28.87;14.87;;;16.40;99.90;;;;;;6294489;22;20183;-75
2021/06/11 03:32:56;;;;;;;32.38;15.52;;;16.40;99.90;;;;;;6294785;22;20168;-77
2021/06/11 03:35:28;;;;;;;33.73;16.93;;;16.40;99.90;;;;;;6294485;22;20893;-78
2021/06/11 03:37:57;;;;;;;29.47;15.47;;;16.40;99.90;;;;;;6293912;22;20172;-81
2021/06/11 03:40:28;;;;;;;37.83;17.85;;;16.50;99.90;;;;;;6295323;22;20172;-76
2021/06/11 03:42:55;;;;;;;36.20;16.83;;;16.50;99.90;;;;;;6293633;22;20657;-77
2021/06/11 03:45:23;;;;;;;40.67;19.55;;;16.50;99.90;;;;;;6295013;22;20172;-75
2021/06/11 03:47:52;;;;;;;38.13;18.40;;;16.50;99.90;;;;;;6294364;22;20168;-76
2021/06/11 03:50:20;;;;;;;33.57;17.07;;;16.50;99.90;;;;;;6293892;22;20568;-79
2021/06/11 03:52:49;;;;;;;39.37;20.87;;;16.40;99.90;;;;;;6294131;22;20204;-78
2021/06/11 03:55:20;;;;;;;39.43;19.50;;;16.50;99.90;;;;;;6294840;22;20183;-77
2021/06/11 03:57:50;;;;;;;38.33;21.00;;;16.50;99.90;;;;;;6293578;22;20211;-77
2021/06/11 04:00:18;;;;;;;41.40;20.40;;;16.50;99.90;;;;;;6294612;22;20160;-76
2021/06/11 04:02:46;;;;;;;42.70;20.50;;;16.60;99.90;;;;;;6294505;22;20199;-77
2021/06/11 04:05:13;;;;;;;43.40;22.17;;;16.60;99.90;;;;;;6293693;22;20168;-77
2021/06/11 04:07:44;;;;;;;38.45;21.27;;;16.60;99.90;;;;;;6295289;22;20176;-83
2021/06/11 04:10:15;;;;;;;42.08;20.40;;;16.60;99.90;;;;;;6294134;22;20164;-80
2021/06/11 04:12:48;;;;;;;44.72;20.55;;;16.60;99.90;;;;;;6294973;22;20161;-77
2021/06/11 04:15:15;;;;;;;45.83;22.92;;;16.60;99.90;;;;;;6295464;22;20168;-76
2021/06/11 04:17:46;;;;;;;53.85;25.05;;;16.70;99.90;;;;;;6294216;22;20199;-77
2021/06/11 04:20:19;;;;;;;52.53;24.15;;;16.70;99.90;;;;;;6295470;22;20164;-77
2021/06/11 04:22:50;;;;;;;60.28;26.00;;;16.70;99.90;;;;;;6296201;22;20187;-78
2021/06/11 04:25:17;;;;;;;58.55;27.27;;;16.70;99.90;;;;;;6296827;22;20176;-79
2021/06/11 04:27:49;;;;;;;60.28;26.52;;;16.70;99.90;;;;;;6297100;22;20176;-82
2021/06/11 04:30:16;;;;;;;55.87;25.70;;;16.80;99.90;;;;;;6297212;22;20168;-78
2021/06/11 04:32:42;;;;;;;47.67;22.57;;;16.80;99.90;;;;;;6297747;22;20183;-81
2021/06/11 04:35:10;;;;;;;42.23;20.73;;;16.80;99.90;;;;;;6297165;22;20553;-82
2021/06/11 04:37:38;;;;;;;46.07;22.00;;;16.80;99.90;;;;;;6298451;22;20183;-78
2021/06/11 04:40:05;;;;;;;46.92;23.63;;;16.80;99.90;;;;;;6297097;22;20857;-80
2021/06/11 04:42:32;;;;;;;50.10;24.50;;;16.80;99.90;;;;;;6296099;22;20254;-81
2021/06/11 04:45:00;;;;;;;44.88;22.52;;;16.90;99.90;;;;;;6296370;22;20170;-81
2021/06/11 04:47:27;;;;;;;42.38;22.23;;;16.90;99.90;;;;;;6297715;22;20237;-81
2021/06/11 04:49:54;;;;;;;37.45;20.02;;;16.90;99.90;;;;;;6298281;22;20182;-82
2021/06/11 04:52:20;;;;;;;30.95;17.98;;;16.90;99.90;;;;;;6297832;22;20164;-82
2021/06/11 04:54:46;;;;;;;47.70;22.23;;;16.90;99.90;;;;;;6298065;22;20180;-81
2021/06/11 04:57:12;;;;;;;40.40;20.35;;;17.00;99.90;;;;;;6297609;22;20207;-83
2021/06/11 04:59:39;;;;;;;29.73;16.70;;;16.90;99.90;;;;;;6298102;22;20493;-80
2021/06/11 05:02:06;;;;;;;28.40;15.68;;;17.00;99.90;;;;;;6296884;22;20171;-80
2021/06/11 05:04:33;;;;;;;23.55;14.00;;;17.00;99.90;;;;;;6296703;22;20172;-80
2021/06/11 05:07:01;;;;;;;22.40;13.70;;;17.00;99.90;;;;;;6297385;22;20408;-83
2021/06/11 05:09:28;;;;;;;21.08;12.68;;;17.00;99.90;;;;;;6297951;22;20179;-80
2021/06/11 05:11:54;;;;;;;18.60;13.32;;;17.00;99.90;;;;;;6296484;22;20171;-80
2021/06/11 05:14:21;;;;;;;18.75;13.50;;;17.00;99.90;;;;;;6296549;22;20172;-80
2021/06/11 05:16:47;;;;;;;18.73;12.50;;;17.10;99.90;;;;;;6296981;22;20179;-82
2021/06/11 05:19:15;;;;;;;23.45;14.65;;;17.10;99.90;;;;;;6297310;22;20196;-82
2021/06/11 05:21:42;;;;;;;21.48;13.30;;;17.20;99.90;;;;;;6296462;22;20199;-82
2021/06/11 05:24:08;;;;;;;23.48;14.40;;;17.20;99.90;;;;;;6295867;22;20235;-81
2021/06/11 05:26:35;;;;;;;23.02;14.05;;;17.20;99.90;;;;;;6297435;22;20255;-79
2021/06/11 05:29:01;;;;;;;20.15;12.95;;;17.20;99.90;;;;;;6297082;22;20172;-82
2021/06/11 05:31:27;;;;;;;23.17;13.65;;;17.30;99.90;;;;;;6297069;22;20213;-82
2021/06/11 05:33:54;;;;;;;16.80;11.73;;;17.30;99.90;;;;;;6296559;22;20183;-81
2021/06/11 05:36:22;;;;;;;14.60;10.55;;;17.30;99.90;;;;;;6296032;22;20550;-81
2021/06/11 05:38:48;;;;;;;18.52;11.63;;;17.30;99.90;;;;;;6296187;22;20186;-81
2021/06/11 05:41:14;;;;;;;14.80;9.38;;;17.40;99.90;;;;;;6296188;22;20619;-81
2021/06/11 05:43:41;;;;;;;13.48;9.93;;;17.40;99.90;;;;;;6295418;22;20658;-81
2021/06/11 05:46:08;;;;;;;17.05;12.07;;;17.40;99.90;;;;;;6296742;22;20223;-78
2021/06/11 05:48:36;;;;;;;15.50;10.73;;;17.50;99.90;;;;;;6295428;22;20171;-81
2021/06/11 05:51:02;;;;;;;15.77;11.82;;;17.60;99.90;;;;;;6296055;22;20176;-81
2021/06/11 05:53:30;;;;;;;14.88;10.43;;;17.60;99.90;;;;;;6296050;22;20183;-81
2021/06/11 05:55:56;;;;;;;19.30;12.75;;;17.70;99.90;;;;;;6295400;22;20179;-81
2021/06/11 05:58:23;;;;;;;14.73;10.15;;;17.70;99.90;;;;;;6294902;22;20203;-81
2021/06/11 06:00:49;;;;;;;15.15;10.38;;;17.70;99.90;;;;;;6296430;22;20179;-78
2021/06/11 06:03:16;;;;;;;16.05;10.00;;;17.70;99.90;;;;;;6295480;22;20196;-77
2021/06/11 06:05:42;;;;;;;11.32;7.63;;;17.70;99.90;;;;;;6295543;22;20168;-81
2021/06/11 06:08:09;;;;;;;12.50;8.45;;;17.60;99.90;;;;;;6295522;22;20182;-80
2021/06/11 06:10:36;;;;;;;14.50;8.65;;;17.70;99.90;;;;;;6295384;22;20172;-79
2021/06/11 06:13:02;;;;;;;10.35;7.75;;;17.60;99.90;;;;;;6295242;22;20175;-81
2021/06/11 06:15:29;;;;;;;12.70;8.63;;;17.70;99.90;;;;;;6296703;22;20176;-81
2021/06/11 06:17:55;;;;;;;9.38;7.47;;;17.80;99.90;;;;;;6294467;22;20183;-80
2021/06/11 06:20:21;;;;;;;11.38;7.75;;;17.80;99.90;;;;;;6294870;22;20360;-81
2021/06/11 06:22:48;;;;;;;11.43;7.82;;;17.80;99.90;;;;;;6294957;22;20188;-81
2021/06/11 06:25:14;;;;;;;11.65;8.82;;;17.90;99.90;;;;;;6293769;22;20176;-80
2021/06/11 06:27:43;;;;;;;14.52;11.15;;;17.90;99.90;;;;;;6294444;22;20168;-80
2021/06/11 06:30:12;;;;;;;10.35;8.38;;;17.90;99.90;;;;;;6294984;22;20234;-79
2021/06/11 06:32:39;;;;;;;10.77;7.80;;;18.00;99.90;;;;;;6293497;22;20196;-77
2021/06/11 06:35:08;;;;;;;14.35;7.25;;;18.10;99.90;;;;;;6294049;22;20237;-79
2021/06/11 06:37:35;;;;;;;8.65;6.05;;;18.20;99.90;;;;;;6294188;22;20222;-80
2021/06/11 06:40:01;;;;;;;7.68;5.78;;;18.30;99.90;;;;;;6293544;22;20179;-79
2021/06/11 06:46:02;;;;;;;11.88;7.70;;;18.40;99.90;;;;;;6264374;22;20172;-80
2021/06/11 06:48:30;;;;;;;9.95;7.97;;;18.40;99.90;;;;;;6293852;22;20765;-77
2021/06/11 06:50:56;;;;;;;7.80;6.97;;;18.40;99.90;;;;;;6293814;22;20184;-80
2021/06/11 06:53:23;;;;;;;7.13;5.90;;;18.40;99.90;;;;;;6293499;22;20252;-78
2021/06/11 06:55:49;;;;;;;9.48;6.50;;;18.40;99.90;;;;;;6293666;22;20183;-78
2021/06/11 06:58:16;;;;;;;7.57;5.60;;;18.40;99.90;;;;;;6292220;22;20448;-77
2021/06/11 07:00:42;;;;;;;8.48;6.75;;;18.30;99.90;;;;;;6284119;22;20179;-78
2021/06/11 07:03:10;;;;;;;8.00;6.13;;;18.30;99.90;;;;;;6292992;22;20184;-79
2021/06/11 07:05:36;;;;;;;6.82;5.03;;;18.30;99.90;;;;;;6292994;22;20172;-77
2021/06/11 07:08:03;;;;;;;11.57;5.35;;;18.50;99.90;;;;;;6292765;22;20845;-77
2021/06/11 07:10:29;;;;;;;5.75;4.68;;;18.70;99.90;;;;;;6294029;22;20172;-78
2021/06/11 07:12:56;;;;;;;8.20;5.97;;;18.80;99.90;;;;;;6293485;22;20178;-80
2021/06/11 07:15:22;;;;;;;9.02;5.70;;;19.00;99.90;;;;;;6293187;22;20210;-78
2021/06/11 07:17:49;;;;;;;7.80;5.53;;;19.30;99.90;;;;;;6294120;22;20192;-80
2021/06/11 07:20:16;;;;;;;8.35;6.30;;;19.40;99.90;;;;;;6293887;22;20164;-81
2021/06/11 07:22:43;;;;;;;8.88;7.22;;;19.50;99.90;;;;;;6292806;22;20823;-79
2021/06/11 07:25:09;;;;;;;10.70;6.43;;;19.70;99.90;;;;;;6294132;22;20164;-79
2021/06/11 07:27:35;;;;;;;8.88;5.80;;;19.80;99.90;;;;;;6293450;22;20704;-78
2021/06/11 07:30:04;;;;;;;6.55;5.90;;;19.90;99.90;;;;;;6294269;22;20885;-77
2021/06/11 07:32:30;;;;;;;8.32;7.28;;;19.90;99.90;;;;;;6294129;22;20843;-77
2021/06/11 07:34:57;;;;;;;6.57;5.65;;;19.90;99.90;;;;;;6292851;22;20176;-77
2021/06/11 07:37:24;;;;;;;5.63;5.00;;;19.90;99.90;;;;;;6294781;22;20187;-77
2021/06/11 07:39:51;;;;;;;5.68;4.25;;;20.00;99.90;;;;;;6293767;22;20706;-78
2021/06/11 07:42:17;;;;;;;6.72;5.55;;;20.20;99.90;;;;;;6292762;22;20256;-80
2021/06/11 07:44:44;;;;;;;7.82;6.72;;;20.40;99.90;;;;;;6293893;22;20225;-80
2021/06/11 07:47:11;;;;;;;8.65;7.38;;;20.50;99.90;;;;;;6294004;22;20172;-76
2021/06/11 07:49:38;;;;;;;9.70;7.63;;;20.50;99.90;;;;;;6293260;22;20620;-78
2021/06/11 07:52:05;;;;;;;7.30;6.45;;;20.70;99.90;;;;;;6292819;22;20600;-78
2021/06/11 07:54:33;;;;;;;6.50;5.80;;;20.60;99.90;;;;;;6294446;22;20168;-77
2021/06/11 07:56:59;;;;;;;7.97;5.75;;;20.50;99.90;;;;;;6294745;22;20573;-79
2021/06/11 07:59:27;;;;;;;7.90;6.47;;;20.50;99.90;;;;;;6292962;22;20194;-79
2021/06/11 08:01:53;;;;;;;9.73;7.03;;;20.40;99.90;;;;;;6295424;22;20179;-80
2021/06/11 08:04:20;;;;;;;10.02;7.68;;;20.30;99.90;;;;;;6295579;22;20192;-79
2021/06/11 08:06:47;;;;;;;10.20;7.80;;;20.30;99.90;;;;;;6296016;22;20462;-78
2021/06/11 08:09:13;;;;;;;7.57;6.75;;;20.20;99.90;;;;;;6295608;22;20168;-77
2021/06/11 08:11:41;;;;;;;7.72;6.05;;;20.10;99.90;;;;;;6295555;22;20172;-76
2021/06/11 08:14:07;;;;;;;8.68;6.70;;;20.10;99.90;;;;;;6295929;22;20226;-81
2021/06/11 08:16:34;;;;;;;9.20;6.53;;;20.10;99.90;;;;;;6296471;22;20545;-79
2021/06/11 08:19:00;;;;;;;6.57;5.30;;;20.20;99.90;;;;;;6295164;22;20522;-79
2021/06/11 08:21:26;;;;;;;6.35;5.75;;;20.10;99.90;;;;;;6296183;22;20639;-78
2021/06/11 08:23:53;;;;;;;7.03;6.20;;;20.00;99.90;;;;;;6294909;22;20195;-77
2021/06/11 08:26:19;;;;;;;7.30;5.72;;;20.10;99.90;;;;;;6295072;22;20168;-79
2021/06/11 08:28:47;;;;;;;8.25;6.70;;;20.30;99.90;;;;;;6294614;22;20176;-80
2021/06/11 08:31:13;;;;;;;8.70;7.53;;;20.30;99.90;;;;;;6295433;22;20237;-81
2021/06/11 08:33:40;;;;;;;10.80;7.47;;;20.40;99.90;;;;;;6295317;22;20172;-80
2021/06/11 08:36:07;;;;;;;9.23;7.38;;;20.50;99.90;;;;;;6295956;22;20489;-79
2021/06/11 08:38:34;;;;;;;6.35;5.05;;;20.70;99.90;;;;;;6295005;22;20164;-78
2021/06/11 08:41:01;;;;;;;7.15;5.72;;;20.70;99.90;;;;;;6296211;22;20176;-77
2021/06/11 08:43:27;;;;;;;7.55;5.70;;;20.80;99.90;;;;;;6294769;22;20199;-78
2021/06/11 08:45:56;;;;;;;6.72;5.47;;;20.90;99.90;;;;;;6295195;22;20176;-78
2021/06/11 08:48:22;;;;;;;7.72;6.82;;;21.00;99.90;;;;;;6295090;22;20168;-80
2021/06/11 08:50:49;;;;;;;8.57;6.10;;;21.10;99.90;;;;;;6294901;22;20225;-79
2021/06/11 08:53:17;;;;;;;7.25;6.45;;;21.20;99.90;;;;;;6294282;22;20689;-77
2021/06/11 08:55:43;;;;;;;6.30;4.90;;;21.20;99.90;;;;;;6295559;22;20172;-80
2021/06/11 08:58:09;;;;;;;7.32;4.95;;;21.20;99.90;;;;;;6295208;22;20204;-80
2021/06/11 09:00:36;;;;;;;5.85;5.15;;;21.10;99.90;;;;;;6294315;22;20172;-77
2021/06/11 09:03:12;;;;;;;6.32;4.72;;;21.10;99.90;;;;;;6294304;22;20192;-78
2021/06/11 09:05:39;;;;;;;6.78;5.95;;;21.10;99.90;;;;;;6294364;22;20187;-78
2021/06/11 09:08:13;;;;;;;8.07;6.78;;;20.90;99.90;;;;;;6292709;22;20180;-80
2021/06/11 09:10:39;;;;;;;10.73;8.07;;;20.90;99.90;;;;;;6294590;22;20176;-77
2021/06/11 09:13:06;;;;;;;8.73;6.40;;;21.00;99.90;;;;;;6293902;22;20217;-77
2021/06/11 09:15:32;;;;;;;7.32;6.38;;;21.00;99.90;;;;;;6293998;22;20175;-78
2021/06/11 09:17:58;;;;;;;9.25;7.65;;;21.20;99.90;;;;;;6294910;22;20198;-76
2021/06/11 09:20:29;;;;;;;10.75;7.43;;;21.30;99.90;;;;;;6293741;22;20202;-78
2021/06/11 09:22:59;;;;;;;8.38;6.57;;;21.40;99.90;;;;;;6296006;22;20212;-77
2021/06/11 09:25:29;;;;;;;7.35;6.25;;;21.40;99.90;;;;;;6294963;22;20164;-79
2021/06/11 09:27:56;;;;;;;8.50;7.07;;;21.40;99.90;;;;;;6293687;22;20176;-78
2021/06/11 09:30:25;;;;;;;8.68;6.68;;;21.60;99.90;;;;;;6294870;22;20172;-81
2021/06/11 09:32:57;;;;;;;11.07;6.93;;;21.70;99.90;;;;;;6294176;22;20779;-79
2021/06/11 09:35:34;;;;;;;10.73;6.20;;;21.90;99.90;;;;;;6294243;22;20165;-77
2021/06/11 09:38:19;;;;;;;7.63;6.22;;;22.10;99.90;;;;;;6294707;22;20174;-78
2021/06/11 09:40:48;;;;;;;8.30;6.13;;;22.10;99.90;;;;;;6294021;22;20287;-77
2021/06/11 09:43:16;;;;;;;9.25;7.13;;;22.00;99.90;;;;;;6293680;22;20245;-78
2021/06/11 09:45:43;;;;;;;7.85;6.10;;;22.00;99.90;;;;;;6294968;22;20199;-77
2021/06/11 09:48:20;;;;;;;8.52;6.75;;;22.00;99.90;;;;;;6294136;22;20175;-79
2021/06/11 09:50:50;;;;;;;7.05;5.78;;;22.10;99.90;;;;;;6294328;22;20179;-77
2021/06/11 09:53:17;;;;;;;8.88;7.07;;;22.30;99.90;;;;;;6293993;22;20171;-80
2021/06/11 09:55:46;;;;;;;7.82;6.20;;;22.30;99.90;;;;;;6294408;22;20300;-79
2021/06/11 09:58:15;;;;;;;9.50;6.93;;;22.20;99.90;;;;;;6293728;22;20298;-77
2021/06/11 10:00:46;;;;;;;7.82;5.97;;;22.20;99.90;;;;;;6294509;22;20168;-76
2021/06/11 10:03:15;;;;;;;7.25;5.43;;;22.10;99.90;;;;;;6294499;22;20195;-77
2021/06/11 10:05:42;;;;;;;6.22;4.38;;;21.90;99.90;;;;;;6294245;22;20694;-76
2021/06/11 10:08:11;;;;;;;9.32;6.60;;;21.80;99.90;;;;;;6294641;22;20180;-77
2021/06/11 10:10:39;;;;;;;7.50;6.10;;;21.60;99.90;;;;;;6293707;22;20476;-78
2021/06/11 10:13:05;;;;;;;5.43;4.15;;;21.50;99.90;;;;;;6294061;22;20480;-76
2021/06/11 10:15:33;;;;;;;5.53;4.70;;;21.30;99.90;;;;;;6293888;22;20254;-77
2021/06/11 10:17:59;;;;;;;7.32;5.05;;;21.20;99.90;;;;;;6293803;22;20196;-82
2021/06/11 10:20:26;;;;;;;7.97;5.97;;;21.20;99.90;;;;;;6294378;22;20176;-78
2021/06/11 10:22:53;;;;;;;10.73;6.50;;;21.10;99.90;;;;;;6292720;22;20179;-79
2021/06/11 10:25:22;;;;;;;8.23;5.32;;;21.00;99.90;;;;;;6292153;22;20183;-79
2021/06/11 10:27:50;;;;;;;16.63;8.32;;;20.90;99.90;;;;;;6293562;22;20195;-80
2021/06/11 10:30:17;;;;;;;12.35;7.70;;;20.80;99.90;;;;;;6294719;22;20172;-79
2021/06/11 10:32:46;;;;;;;10.85;7.18;;;20.70;99.90;;;;;;6293792;22;20233;-79
2021/06/11 10:35:13;;;;;;;10.98;7.30;;;20.40;99.90;;;;;;6294518;22;20532;-75
2021/06/11 10:37:42;;;;;;;5.32;4.82;;;20.40;99.90;;;;;;6293834;22;20172;-77
2021/06/11 10:40:17;;;;;;;6.95;5.18;;;20.40;99.90;;;;;;6294524;22;20549;-77
2021/06/11 10:42:45;;;;;;;7.35;5.63;;;20.40;99.90;;;;;;6293760;22;20178;-79
2021/06/11 10:45:13;;;;;;;8.57;6.75;;;20.60;99.90;;;;;;6292808;22;20631;-78
2021/06/11 10:47:52;;;;;;;9.00;7.05;;;20.70;99.90;;;;;;6293236;22;20183;-78
2021/06/11 10:50:30;;;;;;;10.52;8.13;;;20.80;99.90;;;;;;6294185;22;20297;-79
2021/06/11 10:53:12;;;;;;;10.48;8.07;;;20.90;99.90;;;;;;6291374;22;20157;-79
2021/06/11 10:55:56;;;;;;;10.40;8.02;;;21.00;99.90;;;;;;6292945;22;20179;-80
2021/06/11 10:58:26;;;;;;;9.82;7.40;;;21.20;99.90;;;;;;6293734;22;20215;-80
2021/06/11 11:00:53;;;;;;;11.75;8.15;;;21.20;99.90;;;;;;6293632;22;20168;-79
2021/06/11 11:03:27;;;;;;;11.55;7.90;;;21.30;99.90;;;;;;6293320;22;20200;-79
2021/06/11 11:05:54;;;;;;;11.32;7.45;;;21.20;99.90;;;;;;6292058;22;20171;-81
2021/06/11 11:08:21;;;;;;;8.35;7.00;;;21.30;99.90;;;;;;6292986;22;20632;-83
2021/06/11 11:10:50;;;;;;;10.65;7.20;;;21.30;99.90;;;;;;6293402;22;20178;-80
2021/06/11 11:13:18;;;;;;;10.85;8.52;;;21.20;99.90;;;;;;6292671;22;20191;-79
2021/06/11 11:15:49;;;;;;;11.38;8.13;;;21.10;99.90;;;;;;6294480;22;20171;-78
2021/06/11 11:18:19;;;;;;;10.75;7.93;;;21.30;99.90;;;;;;6302669;22;20223;-80
2021/06/11 11:20:45;;;;;;;10.98;7.55;;;21.10;99.90;;;;;;6294893;22;20199;-79
2021/06/11 11:23:14;;;;;;;9.48;7.53;;;21.10;99.90;;;;;;6292228;22;20191;-78
2021/06/11 11:25:42;;;;;;;11.70;8.38;;;21.20;99.90;;;;;;6293351;22;20175;-76
2021/06/11 11:28:10;;;;;;;10.35;7.95;;;21.20;99.90;;;;;;6292857;22;20461;-78
2021/06/11 11:30:37;;;;;;;10.07;7.60;;;21.30;99.90;;;;;;6294656;22;20171;-77
2021/06/11 11:33:07;;;;;;;13.95;8.70;;;21.30;99.90;;;;;;6295567;22;20233;-79
2021/06/11 11:35:35;;;;;;;9.65;7.80;;;21.40;99.90;;;;;;6295143;22;20175;-79
2021/06/11 11:38:04;;;;;;;10.20;8.15;;;21.60;99.90;;;;;;6296853;22;20175;-78
2021/06/11 11:40:31;;;;;;;10.80;8.20;;;21.70;99.90;;;;;;6296708;22;20273;-79
2021/06/11 11:42:59;;;;;;;12.00;8.57;;;21.80;99.90;;;;;;6295067;22;20176;-79
2021/06/11 11:45:27;;;;;;;12.07;8.35;;;21.80;99.90;;;;;;6294632;22;20747;-78
2021/06/11 11:47:53;;;;;;;11.73;7.80;;;21.60;99.90;;;;;;6294501;22;20175;-78
2021/06/11 11:50:21;;;;;;;9.88;7.50;;;21.60;99.90;;;;;;6295467;22;20172;-79
2021/06/11 11:52:48;;;;;;;9.82;7.82;;;21.60;99.90;;;;;;6295749;22;20179;-79
2021/06/11 11:55:15;;;;;;;9.13;7.60;;;21.50;99.90;;;;;;6293465;22;20560;-79
2021/06/11 11:57:42;;;;;;;10.25;8.38;;;21.50;99.90;;;;;;6294955;22;20191;-78
2021/06/11 12:00:10;;;;;;;9.93;7.82;;;21.60;99.90;;;;;;6295500;22;20253;-79
2021/06/11 12:02:36;;;;;;;7.72;6.82;;;21.50;99.90;;;;;;6294545;22;20176;-79
2021/06/11 12:05:03;;;;;;;10.82;7.93;;;21.60;99.90;;;;;;6295709;22;20572;-78
2021/06/11 12:07:30;;;;;;;10.10;7.93;;;21.60;99.90;;;;;;6295356;22;20187;-77
2021/06/11 12:09:58;;;;;;;9.60;7.93;;;21.60;99.90;;;;;;6295035;22;20172;-78
2021/06/11 12:12:25;;;;;;;10.85;8.02;;;21.50;99.90;;;;;;6295171;22;20176;-78
2021/06/11 12:14:51;;;;;;;10.52;8.77;;;21.50;99.90;;;;;;6295707;22;20172;-78
2021/06/11 12:17:18;;;;;;;9.15;7.93;;;21.50;99.90;;;;;;6294558;22;20192;-80
2021/06/11 12:19:44;;;;;;;9.15;8.13;;;21.50;99.90;;;;;;6294416;22;20233;-76
2021/06/11 12:22:10;;;;;;;10.57;9.40;;;21.60;99.90;;;;;;6295450;22;20706;-77
2021/06/11 12:24:38;;;;;;;11.32;9.82;;;21.60;99.90;;;;;;6294034;22;20198;-77
2021/06/11 12:27:05;;;;;;;13.70;10.98;;;21.60;99.90;;;;;;6294827;22;20199;-77
2021/06/11 12:29:32;;;;;;;14.90;12.70;;;21.70;99.90;;;;;;6294919;22;20183;-80
2021/06/11 12:31:58;;;;;;;14.75;11.45;;;21.70;99.90;;;;;;6293695;22;20173;-80
2021/06/11 12:34:24;;;;;;;16.05;12.20;;;21.60;99.90;;;;;;6294905;22;20172;-78
2021/06/11 12:36:51;;;;;;;11.05;9.85;;;21.60;99.90;;;;;;6294290;22;20175;-77
2021/06/11 12:39:17;;;;;;;15.70;10.57;;;21.60;99.90;;;;;;6294508;22;20172;-78
2021/06/11 12:41:45;;;;;;;13.93;11.32;;;21.70;99.90;;;;;;6293729;22;20277;-77
2021/06/11 12:44:15;;;;;;;12.98;9.88;;;21.80;99.90;;;;;;6294217;22;20202;-78